createdAt,value
2022-11-18T00:03:35.834Z,21.30
2022-11-18T00:08:43.061Z,21.20
2022-11-18T00:13:50.234Z,21.20
2022-11-18T00:18:57.490Z,21.20
2022-11-18T00:24:04.653Z,21.20
2022-11-18T00:29:11.843Z,21.20
2022-11-18T00:34:19.140Z,21.20
2022-11-18T00:39:26.267Z,21.20
2022-11-18T00:44:33.479Z,21.20
2022-11-18T00:49:40.991Z,21.20
2022-11-18T00:54:48.342Z,21.20
2022-11-18T00:59:55.623Z,21.30
2022-11-18T01:05:02.841Z,21.20
2022-11-18T01:10:10.028Z,21.30
2022-11-18T01:15:17.278Z,21.20
2022-11-18T01:20:24.525Z,21.20
2022-11-18T01:25:31.669Z,21.20
2022-11-18T01:30:38.932Z,21.20
2022-11-18T01:35:46.174Z,21.20
2022-11-18T01:40:53.356Z,21.20
2022-11-18T01:46:00.545Z,21.20
2022-11-18T01:51:07.794Z,21.20
2022-11-18T01:56:14.962Z,21.20
2022-11-18T02:01:22.241Z,21.20
2022-11-18T02:06:29.472Z,21.10
2022-11-18T02:11:36.661Z,21.10
2022-11-18T02:16:43.820Z,21.10
2022-11-18T02:21:51.098Z,21.20
2022-11-18T02:26:58.381Z,21.20
2022-11-18T02:32:05.611Z,21.20
2022-11-18T02:37:12.860Z,21.20
2022-11-18T02:42:20.091Z,21.20
2022-11-18T02:47:27.431Z,21.20
2022-11-18T02:52:34.773Z,21.20
2022-11-18T02:57:42.161Z,21.20
2022-11-18T03:02:49.584Z,21.20
2022-11-18T03:07:57.030Z,21.20
2022-11-18T03:13:04.420Z,21.10
2022-11-18T03:18:11.938Z,21.10
2022-11-18T03:23:19.345Z,21.10
2022-11-18T03:28:26.726Z,21.10
2022-11-18T03:33:34.228Z,21.10
2022-11-18T03:38:41.590Z,21.10
2022-11-18T03:43:48.839Z,21.10
2022-11-18T03:48:56.124Z,21.10
2022-11-18T03:54:03.450Z,21.10
2022-11-18T03:59:10.688Z,21.10
2022-11-18T04:04:17.896Z,21.10
2022-11-18T04:09:25.186Z,21.10
2022-11-18T04:14:32.409Z,21.10
2022-11-18T04:19:39.717Z,21.10
2022-11-18T04:24:46.903Z,21.10
2022-11-18T04:29:54.217Z,21.10
2022-11-18T04:35:01.457Z,21.10
2022-11-18T04:40:08.800Z,21.10
2022-11-18T04:45:15.876Z,21.10
2022-11-18T04:50:23.260Z,21.00
2022-11-18T04:55:30.658Z,21.00
2022-11-18T05:00:37.862Z,21.00
2022-11-18T05:05:45.230Z,21.00
2022-11-18T05:10:52.556Z,21.00
2022-11-18T05:15:59.721Z,21.00
2022-11-18T05:21:07.063Z,21.00
2022-11-18T05:26:14.394Z,21.00
2022-11-18T05:31:21.727Z,21.00
2022-11-18T05:36:28.933Z,21.00
2022-11-18T05:41:36.367Z,21.00
2022-11-18T05:46:43.714Z,21.00
2022-11-18T05:51:51.111Z,21.00
2022-11-18T05:56:58.660Z,21.10
2022-11-18T06:02:06.057Z,21.00
2022-11-18T06:07:13.363Z,21.10
2022-11-18T06:12:20.663Z,21.00
2022-11-18T06:17:27.999Z,21.00
2022-11-18T06:22:35.301Z,21.00
2022-11-18T06:27:42.621Z,21.00
2022-11-18T06:32:49.726Z,21.00
2022-11-18T06:37:56.982Z,20.90
2022-11-18T06:43:04.194Z,21.00
2022-11-18T06:48:11.587Z,20.90
2022-11-18T06:53:18.949Z,20.90
2022-11-18T06:58:26.330Z,20.90
2022-11-18T07:03:33.757Z,20.90
2022-11-18T07:08:41.169Z,20.90
2022-11-18T07:13:48.830Z,20.90
2022-11-18T07:18:56.064Z,20.90
2022-11-18T07:24:03.224Z,20.90
2022-11-18T07:29:10.482Z,21.00
2022-11-18T07:34:17.931Z,21.00
2022-11-18T07:39:25.258Z,21.00
2022-11-18T07:44:32.760Z,21.00
2022-11-18T07:49:40.103Z,21.00
2022-11-18T07:54:47.383Z,20.90
2022-11-18T07:59:54.876Z,21.00
2022-11-18T08:05:02.231Z,20.90
2022-11-18T08:10:09.312Z,21.00
2022-11-18T08:15:16.529Z,21.10
2022-11-18T08:20:23.686Z,21.10
2022-11-18T08:25:30.918Z,21.20
2022-11-18T08:30:38.212Z,21.30
2022-11-18T08:35:45.409Z,21.40
2022-11-18T08:40:52.667Z,21.50
2022-11-18T08:45:59.861Z,21.60
2022-11-18T08:51:07.100Z,21.70
2022-11-18T08:56:15.288Z,21.80
2022-11-18T09:01:21.551Z,21.80
2022-11-18T09:06:28.653Z,21.90
2022-11-18T09:11:35.813Z,22.00
2022-11-18T09:16:42.971Z,22.10
2022-11-18T09:21:50.189Z,22.10
2022-11-18T09:26:57.408Z,22.20
2022-11-18T09:32:04.642Z,22.20
2022-11-18T09:37:11.798Z,22.30
2022-11-18T09:42:18.971Z,22.30
2022-11-18T09:47:26.212Z,22.40
2022-11-18T09:52:36.144Z,22.40
2022-11-18T09:57:40.591Z,22.40
2022-11-18T10:02:47.843Z,22.50
2022-11-18T10:07:55.026Z,22.60
2022-11-18T10:13:02.248Z,22.60
2022-11-18T10:18:09.551Z,22.60
2022-11-18T10:23:16.794Z,22.70
2022-11-18T10:28:23.999Z,22.70
2022-11-18T10:33:31.278Z,22.70
2022-11-18T10:38:38.481Z,22.80
2022-11-18T10:43:45.744Z,22.80
2022-11-18T10:48:52.947Z,22.90
2022-11-18T10:54:00.137Z,22.90
2022-11-18T10:59:07.390Z,22.90
2022-11-18T11:04:14.889Z,23.00
2022-11-18T11:09:21.700Z,23.00
2022-11-18T11:14:28.974Z,23.00
2022-11-18T11:19:36.187Z,23.00
2022-11-18T11:24:43.377Z,22.90
2022-11-18T11:29:50.530Z,22.90
2022-11-18T11:34:57.774Z,23.00
2022-11-18T11:40:05.005Z,23.10
2022-11-18T11:45:12.216Z,23.10
2022-11-18T11:50:19.474Z,23.10
2022-11-18T11:55:26.692Z,23.10
2022-11-18T12:00:33.903Z,23.10
2022-11-18T12:05:41.165Z,23.10
2022-11-18T12:10:48.384Z,23.10
2022-11-18T12:15:55.613Z,23.10
2022-11-18T12:21:02.810Z,23.20
2022-11-18T12:26:09.940Z,23.20
2022-11-18T12:31:17.182Z,23.20
2022-11-18T12:36:24.454Z,23.20
2022-11-18T12:41:31.641Z,23.20
2022-11-18T12:46:44.282Z,23.30
2022-11-18T12:51:46.176Z,23.40
2022-11-18T12:56:53.394Z,23.40
2022-11-18T13:02:00.678Z,23.50
2022-11-18T13:07:07.945Z,23.50
2022-11-18T13:12:15.084Z,23.50
2022-11-18T13:17:22.281Z,23.50
2022-11-18T13:22:29.520Z,23.40
2022-11-18T13:27:36.662Z,23.40
2022-11-18T13:32:43.864Z,23.50
2022-11-18T13:37:51.119Z,23.50
2022-11-18T13:42:58.316Z,23.50
2022-11-18T13:48:05.544Z,23.50
2022-11-18T13:53:12.783Z,23.40
2022-11-18T13:58:20.045Z,23.30
2022-11-18T14:03:27.268Z,23.30
2022-11-18T14:08:34.584Z,23.30
2022-11-18T14:13:44.561Z,23.30
2022-11-18T14:18:51.834Z,23.30
2022-11-18T14:23:59.154Z,23.40
2022-11-18T14:29:06.261Z,23.40
2022-11-18T14:34:13.488Z,23.40
2022-11-18T14:39:26.415Z,23.40
2022-11-18T14:44:27.980Z,23.30
2022-11-18T14:49:35.164Z,23.30
2022-11-18T14:54:42.454Z,23.30
2022-11-18T14:59:49.609Z,23.30
2022-11-18T15:04:56.847Z,23.30
2022-11-18T15:10:04.081Z,23.30
2022-11-18T15:15:11.279Z,23.30
2022-11-18T15:20:18.511Z,23.20
2022-11-18T15:25:25.823Z,23.20
2022-11-18T15:30:32.996Z,23.20
2022-11-18T15:35:40.159Z,23.10
2022-11-18T15:40:47.388Z,23.10
2022-11-18T15:45:54.603Z,23.10
2022-11-18T15:51:01.818Z,23.20
2022-11-18T15:56:09.086Z,23.20
2022-11-18T16:01:16.403Z,23.20
2022-11-18T16:06:23.523Z,23.20
2022-11-18T16:11:30.753Z,23.20
2022-11-18T16:16:37.932Z,23.30
2022-11-18T16:21:45.179Z,23.30
2022-11-18T16:26:52.458Z,23.40
2022-11-18T16:31:59.628Z,23.40
2022-11-18T16:37:06.884Z,23.40
2022-11-18T16:42:14.139Z,23.40
2022-11-18T16:47:21.359Z,23.40
2022-11-18T16:52:28.590Z,23.40
2022-11-18T16:57:35.874Z,23.40
2022-11-18T17:02:43.985Z,23.40
2022-11-18T17:07:51.151Z,23.40
2022-11-18T17:12:58.651Z,23.40
2022-11-18T17:18:42.766Z,23.30
2022-11-18T17:23:49.992Z,23.40
2022-11-18T17:28:57.424Z,23.30
2022-11-18T17:34:04.720Z,23.40
2022-11-18T17:39:11.943Z,23.40
2022-11-18T17:44:19.510Z,23.30
2022-11-18T17:49:26.324Z,23.40
2022-11-18T17:54:33.549Z,23.40
2022-11-18T17:59:40.897Z,23.40
2022-11-18T18:04:48.057Z,23.40
2022-11-18T18:09:55.447Z,23.40
2022-11-18T18:15:03.160Z,23.30
2022-11-18T18:20:10.322Z,23.30
2022-11-18T18:25:17.779Z,23.30
2022-11-18T18:30:25.228Z,23.30
2022-11-18T18:35:32.540Z,23.30
2022-11-18T18:40:40.108Z,23.20
2022-11-18T18:45:48.259Z,23.20
2022-11-18T18:50:56.468Z,23.30
2022-11-18T18:56:04.084Z,23.30
2022-11-18T19:01:11.857Z,23.40
2022-11-18T19:06:50.040Z,23.50
2022-11-18T19:11:26.919Z,23.60
2022-11-18T19:16:34.356Z,23.60
2022-11-18T19:21:42.045Z,23.60
2022-11-18T19:26:49.564Z,23.60
2022-11-18T19:31:57.167Z,23.70
2022-11-18T19:37:04.482Z,23.80
2022-11-18T19:42:11.829Z,23.70
2022-11-18T19:47:19.327Z,23.70
2022-11-18T19:52:26.851Z,23.80
2022-11-18T19:57:34.178Z,23.70
2022-11-18T20:02:41.394Z,23.80
2022-11-18T20:07:48.849Z,23.80
2022-11-18T20:12:56.551Z,23.80
2022-11-18T20:18:04.192Z,23.70
2022-11-18T20:23:11.741Z,23.80
2022-11-18T20:28:19.193Z,23.90
2022-11-18T20:33:26.831Z,23.90
2022-11-18T20:38:34.529Z,23.90
2022-11-18T20:43:41.868Z,24.00
2022-11-18T20:48:49.376Z,23.90
2022-11-18T20:53:56.650Z,23.90
2022-11-18T20:59:04.167Z,23.90
2022-11-18T21:04:11.801Z,23.90
2022-11-18T21:09:19.356Z,23.90
2022-11-18T21:14:26.492Z,23.90
2022-11-18T21:19:34.227Z,23.90
2022-11-18T21:24:41.272Z,23.90
2022-11-18T21:29:48.481Z,23.90
2022-11-18T21:34:55.674Z,23.90
2022-11-18T21:40:02.845Z,23.90
2022-11-18T21:45:10.135Z,24.00
2022-11-18T21:50:17.365Z,24.00
2022-11-18T21:55:24.577Z,24.00
2022-11-18T22:00:31.841Z,24.00
2022-11-18T22:05:38.973Z,24.00
2022-11-18T22:10:46.164Z,24.00
2022-11-18T22:15:53.384Z,24.00
2022-11-18T22:21:00.603Z,24.00
2022-11-18T22:26:07.866Z,24.00
2022-11-18T22:31:15.118Z,23.90
2022-11-18T22:36:22.323Z,23.90
2022-11-18T22:41:29.485Z,23.80
2022-11-18T22:46:36.693Z,23.80
2022-11-18T22:51:43.886Z,23.80
2022-11-18T22:56:51.017Z,23.80
2022-11-18T23:01:58.197Z,23.80
2022-11-18T23:07:05.527Z,23.80
2022-11-18T23:12:12.625Z,23.90
2022-11-18T23:17:19.865Z,23.90
2022-11-18T23:22:27.047Z,23.90
2022-11-18T23:27:34.264Z,23.90
2022-11-18T23:32:41.429Z,23.90
2022-11-18T23:37:48.654Z,23.70
2022-11-18T23:42:55.799Z,23.70
2022-11-18T23:48:03.142Z,23.70
2022-11-18T23:53:10.383Z,23.70
2022-11-18T23:58:17.573Z,23.80
